Details for KLM (Royal Dutch Airlines) at EHAM




Go Back


Latest METAR
Local Time

EHAM 211425Z 04009KT 010V070 9000 NSC 04/M03 Q1025 NOSIG

21/02/2018, 15:56:17

Description
Results
KLM (Royal Dutch Airlines) Logo
Number of Pilots based at EHAM
2 Pilots Based here
Number of KLM (Royal Dutch Airlines) Flights Departed from EHAM
20 Flights Departed
Number of KLM (Royal Dutch Airlines) Flights Arrived at EHAM
25 Flights Arrived
Number of KLM (Royal Dutch Airlines) Schedules Departing from EHAM
257 Schedules
Number of KLM (Royal Dutch Airlines) Schedules Arriving at EHAM
267 Schedules
Number of KLM (Royal Dutch Airlines) Schedules Departing from EHAM availible today
194 Schedules Today
Number of KLM (Royal Dutch Airlines) Schedules Arriving at EHAM availible today
196 Schedules Today
Average Landing Rate at EHAM
-212 fpm
KLM (Royal Dutch Airlines) Average Landing Rate at EHAM
-200 fpm
Total Fuel Purchased at EHAM by KLM (Royal Dutch Airlines)
294,438.42 kgs / 649,118.94 lbs

Pilots Based at EHAM


Pilot ID
Pilot Name
Pilot Rank
No. of Flights
No. of Flying Hours
Youri Rutten
82
194.26
James Hatcher
122
482.05
Content